createdAt,value
2022-09-27T00:01:13.684Z,13.20
2022-09-27T00:03:41.594Z,13.10
2022-09-27T00:06:25.090Z,13.20
2022-09-27T00:08:52.291Z,13.30
2022-09-27T00:11:39.633Z,13.20
2022-09-27T00:14:07.765Z,13.10
2022-09-27T00:16:36.788Z,13.00
2022-09-27T00:19:07.654Z,12.90
2022-09-27T00:21:35.462Z,12.60
2022-09-27T00:24:02.825Z,12.60
2022-09-27T00:26:30.079Z,12.60
2022-09-27T00:28:57.311Z,12.40
2022-09-27T00:31:29.527Z,12.40
2022-09-27T00:33:59.139Z,12.50
2022-09-27T00:36:28.115Z,12.50
2022-09-27T00:38:56.045Z,12.50
2022-09-27T00:41:30.961Z,12.50
2022-09-27T00:44:05.514Z,12.50
2022-09-27T00:46:36.408Z,12.40
2022-09-27T00:49:20.957Z,12.30
2022-09-27T00:51:53.070Z,12.20
2022-09-27T00:54:22.497Z,12.50
2022-09-27T00:56:49.942Z,12.50
2022-09-27T00:59:19.222Z,12.40
2022-09-27T01:01:46.555Z,12.60
2022-09-27T01:04:18.347Z,12.60
2022-09-27T01:06:45.372Z,12.60
2022-09-27T01:09:12.759Z,12.70
2022-09-27T01:12:01.217Z,12.50
2022-09-27T01:14:47.540Z,12.40
2022-09-27T01:17:39.740Z,12.40
2022-09-27T01:20:37.496Z,12.40
2022-09-27T01:24:00.504Z,12.20
2022-09-27T01:26:59.433Z,12.30
2022-09-27T01:30:14.268Z,12.30
2022-09-27T01:33:06.596Z,12.30
2022-09-27T01:36:05.236Z,12.40
2022-09-27T01:38:50.204Z,12.20
2022-09-27T01:41:26.514Z,12.10
2022-09-27T01:44:16.365Z,12.00
2022-09-27T01:46:55.075Z,11.90
2022-09-27T01:49:42.844Z,11.90
2022-09-27T01:52:13.409Z,12.00
2022-09-27T01:54:45.516Z,11.90
2022-09-27T01:57:16.746Z,12.10
2022-09-27T01:59:49.486Z,11.90
2022-09-27T02:02:19.264Z,11.80
2022-09-27T02:04:51.088Z,11.40
2022-09-27T02:07:24.764Z,11.30
2022-09-27T02:10:02.419Z,11.30
2022-09-27T02:12:34.318Z,11.10
2022-09-27T02:15:09.946Z,11.10
2022-09-27T02:17:55.554Z,11.10
2022-09-27T02:20:36.480Z,11.30
2022-09-27T02:23:23.062Z,11.40
2022-09-27T02:26:04.246Z,11.30
2022-09-27T02:28:39.504Z,11.20
2022-09-27T02:31:06.749Z,11.20
2022-09-27T02:33:42.778Z,11.40
2022-09-27T02:36:10.151Z,11.40
2022-09-27T02:38:37.456Z,11.30
2022-09-27T02:41:05.130Z,11.30
2022-09-27T02:43:33.551Z,11.30
2022-09-27T02:46:07.197Z,11.20
2022-09-27T02:48:59.885Z,11.30
2022-09-27T02:51:42.127Z,11.10
2022-09-27T02:54:44.391Z,11.00
2022-09-27T02:57:41.519Z,11.10
2022-09-27T03:00:11.138Z,11.00
2022-09-27T03:03:04.188Z,11.20
2022-09-27T03:05:38.646Z,11.20
2022-09-27T03:08:07.366Z,11.30
2022-09-27T03:10:34.622Z,11.30
2022-09-27T03:13:02.121Z,11.30
2022-09-27T03:15:29.225Z,11.30
2022-09-27T03:17:55.971Z,11.20
2022-09-27T03:20:22.914Z,11.10
2022-09-27T03:22:50.067Z,11.00
2022-09-27T03:25:17.075Z,10.90
2022-09-27T03:27:44.496Z,10.70
2022-09-27T03:30:14.546Z,10.90
2022-09-27T03:32:45.075Z,10.70
2022-09-27T03:35:13.600Z,10.70
2022-09-27T03:37:41.429Z,11.00
2022-09-27T03:40:09.242Z,10.80
2022-09-27T03:42:36.331Z,10.70
2022-09-27T03:45:03.330Z,10.80
2022-09-27T03:47:30.170Z,10.90
2022-09-27T03:49:57.055Z,11.00
2022-09-27T03:52:24.002Z,11.00
2022-09-27T03:54:51.076Z,10.90
2022-09-27T03:57:18.019Z,11.10
2022-09-27T03:59:45.006Z,11.10
2022-09-27T04:02:12.128Z,11.20
2022-09-27T04:04:39.305Z,11.30
2022-09-27T04:07:06.163Z,11.40
2022-09-27T04:09:32.956Z,11.50
2022-09-27T04:11:59.779Z,11.60
2022-09-27T04:14:26.629Z,11.60
2022-09-27T04:16:53.476Z,11.50
2022-09-27T04:19:20.342Z,11.50
2022-09-27T04:21:47.234Z,11.60
2022-09-27T04:24:14.465Z,11.70
2022-09-27T04:26:41.499Z,11.70
2022-09-27T04:29:09.741Z,11.60
2022-09-27T04:31:37.971Z,11.50
2022-09-27T04:34:05.890Z,11.60
2022-09-27T04:36:33.368Z,11.60
2022-09-27T04:39:02.820Z,11.50
2022-09-27T04:41:30.321Z,11.50
2022-09-27T04:43:59.628Z,11.50
2022-09-27T04:46:31.670Z,11.60
2022-09-27T04:49:02.239Z,11.60
2022-09-27T04:51:29.327Z,11.60
2022-09-27T04:53:58.190Z,11.60
2022-09-27T04:56:25.664Z,11.70
2022-09-27T04:58:53.994Z,11.70
2022-09-27T05:01:21.108Z,11.70
2022-09-27T05:03:48.102Z,11.70
2022-09-27T05:06:14.954Z,11.70
2022-09-27T05:08:42.026Z,11.60
2022-09-27T05:11:09.095Z,11.50
2022-09-27T05:13:36.108Z,11.60
2022-09-27T05:16:04.546Z,11.60
2022-09-27T05:18:31.568Z,11.80
2022-09-27T05:20:59.223Z,11.80
2022-09-27T05:23:26.837Z,12.00
2022-09-27T05:25:56.591Z,12.00
2022-09-27T05:28:26.732Z,11.90
2022-09-27T05:30:53.969Z,11.60
2022-09-27T05:33:20.927Z,11.60
2022-09-27T05:35:58.043Z,11.80
2022-09-27T05:38:26.235Z,11.80
2022-09-27T05:40:53.320Z,11.80
2022-09-27T05:43:21.499Z,11.70
2022-09-27T05:45:48.385Z,11.80
2022-09-27T05:48:15.440Z,11.80
2022-09-27T05:50:42.674Z,11.60
2022-09-27T05:53:10.800Z,11.70
2022-09-27T05:55:38.147Z,11.80
2022-09-27T05:58:08.246Z,11.60
2022-09-27T06:00:35.837Z,11.50
2022-09-27T06:03:08.161Z,11.40
2022-09-27T06:05:37.678Z,11.30
2022-09-27T06:08:07.629Z,11.20
2022-09-27T06:10:35.548Z,11.30
2022-09-27T06:13:14.152Z,11.50
2022-09-27T06:15:43.065Z,11.30
2022-09-27T06:18:13.254Z,11.50
2022-09-27T06:20:42.953Z,11.30
2022-09-27T06:23:19.212Z,11.30
2022-09-27T06:25:49.833Z,11.20
2022-09-27T06:28:19.225Z,11.40
2022-09-27T06:30:48.310Z,11.50
2022-09-27T06:33:20.274Z,11.30
2022-09-27T06:35:49.303Z,11.20
2022-09-27T06:38:18.158Z,11.10
2022-09-27T06:40:45.925Z,11.20
2022-09-27T06:43:19.826Z,11.30
2022-09-27T06:45:47.435Z,11.50
2022-09-27T06:48:17.121Z,11.50
2022-09-27T06:50:46.284Z,11.50
2022-09-27T06:53:15.424Z,11.60
2022-09-27T06:55:43.080Z,11.50
2022-09-27T06:58:30.151Z,11.60
2022-09-27T07:00:58.862Z,11.60
2022-09-27T07:03:36.512Z,11.80
2022-09-27T07:06:06.604Z,11.80
2022-09-27T07:08:36.120Z,11.80
2022-09-27T07:11:05.998Z,11.80
2022-09-27T07:13:34.605Z,12.10
2022-09-27T07:16:02.171Z,11.80
2022-09-27T07:18:29.385Z,11.80
2022-09-27T07:21:00.158Z,11.90
2022-09-27T07:23:27.684Z,11.70
2022-09-27T07:25:54.432Z,11.80
2022-09-27T07:28:22.222Z,11.90
2022-09-27T07:30:50.142Z,11.90
2022-09-27T07:33:17.206Z,12.00
2022-09-27T07:35:44.177Z,12.00
2022-09-27T07:38:14.029Z,12.20
2022-09-27T07:40:41.583Z,12.20
2022-09-27T07:43:09.716Z,12.30
2022-09-27T07:45:37.628Z,12.20
2022-09-27T07:48:09.120Z,12.20
2022-09-27T07:50:36.448Z,12.40
2022-09-27T07:53:04.866Z,12.40
2022-09-27T07:55:32.476Z,12.60
2022-09-27T07:58:22.102Z,12.70
2022-09-27T08:00:49.039Z,12.70
2022-09-27T08:03:17.597Z,12.70
2022-09-27T08:05:46.306Z,12.70
2022-09-27T08:08:14.110Z,12.80
2022-09-27T08:10:44.424Z,12.90
2022-09-27T08:13:12.327Z,12.90
2022-09-27T08:15:39.308Z,12.80
2022-09-27T08:18:07.745Z,12.90
2022-09-27T08:20:34.558Z,13.20
2022-09-27T08:23:03.685Z,13.40
2022-09-27T08:25:31.100Z,13.50
2022-09-27T08:28:02.825Z,13.60
2022-09-27T08:30:32.374Z,13.70
2022-09-27T08:33:03.348Z,13.80
2022-09-27T08:35:34.135Z,13.90
2022-09-27T08:38:03.046Z,13.80
2022-09-27T08:40:49.266Z,13.80
2022-09-27T08:43:19.146Z,14.10
2022-09-27T08:46:07.099Z,14.20
2022-09-27T08:48:36.325Z,14.30
2022-09-27T08:51:06.103Z,14.40
2022-09-27T08:54:00.570Z,14.40
2022-09-27T08:56:27.580Z,14.10
2022-09-27T08:59:07.582Z,13.70
2022-09-27T09:01:35.835Z,13.90
2022-09-27T09:04:04.462Z,14.10
2022-09-27T09:06:46.613Z,14.00
2022-09-27T09:09:33.461Z,13.80
2022-09-27T09:12:24.478Z,13.60
2022-09-27T09:15:09.994Z,13.60
2022-09-27T09:18:02.625Z,13.60
2022-09-27T09:21:07.652Z,13.50
2022-09-27T09:24:22.093Z,13.40
2022-09-27T09:26:57.676Z,13.40
2022-09-27T09:29:33.585Z,13.30
2022-09-27T09:32:12.095Z,13.00
2022-09-27T09:34:45.792Z,13.20
2022-09-27T09:37:34.646Z,13.00
2022-09-27T09:40:09.282Z,13.20
2022-09-27T09:42:43.540Z,13.30
2022-09-27T09:45:24.502Z,13.50
2022-09-27T09:48:09.179Z,14.00
2022-09-27T09:50:43.273Z,14.30
2022-09-27T09:53:44.624Z,14.30
2022-09-27T09:56:23.145Z,14.50
2022-09-27T09:59:25.415Z,14.50
2022-09-27T10:01:55.915Z,14.40
2022-09-27T10:04:28.451Z,14.70
2022-09-27T10:06:58.558Z,15.00
2022-09-27T10:09:28.308Z,15.30
2022-09-27T10:11:55.609Z,15.10
2022-09-27T10:14:23.141Z,15.30
2022-09-27T10:16:55.410Z,15.40
2022-09-27T10:19:31.862Z,15.90
2022-09-27T10:22:16.912Z,16.20
2022-09-27T10:24:55.221Z,16.00
2022-09-27T10:27:24.001Z,16.40
2022-09-27T10:30:00.815Z,16.60
2022-09-27T10:32:37.310Z,16.20
2022-09-27T10:35:30.241Z,15.50
2022-09-27T10:38:24.130Z,15.20
2022-09-27T10:40:53.621Z,14.70
2022-09-27T10:43:33.990Z,15.10
2022-09-27T10:46:09.871Z,15.60
2022-09-27T10:48:39.437Z,15.90
2022-09-27T10:51:20.626Z,16.10
2022-09-27T10:53:48.654Z,16.40
2022-09-27T10:56:29.246Z,16.90
2022-09-27T10:58:59.281Z,16.70
2022-09-27T11:01:27.994Z,16.40
2022-09-27T11:03:59.319Z,16.80
2022-09-27T11:06:26.926Z,16.90
2022-09-27T11:08:55.527Z,17.20
2022-09-27T11:11:28.483Z,17.20
2022-09-27T11:13:59.804Z,17.10
2022-09-27T11:17:00.023Z,17.50
2022-09-27T11:19:45.122Z,17.90
2022-09-27T11:22:44.541Z,17.40
2022-09-27T11:25:44.869Z,17.30
2022-09-27T11:28:28.948Z,17.20
2022-09-27T11:31:17.636Z,17.20
2022-09-27T11:34:05.458Z,17.00
2022-09-27T11:36:50.339Z,17.00
2022-09-27T11:39:38.008Z,17.20
2022-09-27T11:42:23.897Z,17.30
2022-09-27T11:45:45.360Z,17.50
2022-09-27T11:48:25.965Z,17.20
2022-09-27T11:51:12.811Z,17.20
2022-09-27T11:53:51.774Z,17.10
2022-09-27T11:56:48.135Z,17.30
2022-09-27T11:59:41.258Z,17.40
2022-09-27T12:02:40.341Z,17.20
2022-09-27T12:05:16.915Z,17.10
2022-09-27T12:08:10.369Z,16.90
2022-09-27T12:10:39.775Z,16.60
2022-09-27T12:13:12.058Z,16.70
2022-09-27T12:15:44.327Z,17.20
2022-09-27T12:18:35.519Z,17.40
2022-09-27T12:21:04.102Z,17.40
2022-09-27T12:23:47.764Z,16.90
2022-09-27T12:26:17.834Z,16.60
2022-09-27T12:28:57.894Z,16.60
2022-09-27T12:31:36.875Z,16.90
2022-09-27T12:34:28.156Z,17.20
2022-09-27T12:37:04.381Z,17.00
2022-09-27T12:39:42.379Z,17.10
2022-09-27T12:42:38.987Z,17.40
2022-09-27T12:45:06.517Z,17.50
2022-09-27T12:47:42.640Z,17.50
2022-09-27T12:50:30.982Z,17.00
2022-09-27T12:53:23.678Z,16.50
2022-09-27T12:56:09.426Z,17.00
2022-09-27T12:59:10.945Z,17.30
2022-09-27T13:01:46.667Z,17.10
2022-09-27T13:04:37.245Z,16.90
2022-09-27T13:07:23.072Z,17.40
2022-09-27T13:10:10.145Z,17.70
2022-09-27T13:12:40.035Z,17.60
2022-09-27T13:15:25.552Z,17.50
2022-09-27T13:17:56.402Z,17.20
2022-09-27T13:20:35.740Z,17.10
2022-09-27T13:23:24.225Z,17.10
2022-09-27T13:26:03.946Z,16.90
2022-09-27T13:28:31.931Z,16.70
2022-09-27T13:31:07.794Z,16.50
2022-09-27T13:33:45.395Z,15.70
2022-09-27T13:36:29.764Z,15.50
2022-09-27T13:39:06.152Z,15.00
2022-09-27T13:41:42.013Z,14.80
2022-09-27T13:44:36.821Z,14.30
2022-09-27T13:47:26.529Z,14.20
2022-09-27T13:50:35.545Z,14.40
2022-09-27T13:53:22.837Z,15.00
2022-09-27T13:55:52.145Z,15.10
2022-09-27T13:58:18.928Z,15.30
2022-09-27T14:00:52.770Z,16.00
2022-09-27T14:03:24.242Z,16.20
2022-09-27T14:06:15.628Z,16.80
2022-09-27T14:09:02.903Z,17.30
2022-09-27T14:11:34.459Z,17.80
2022-09-27T14:14:02.993Z,17.50
2022-09-27T14:16:35.986Z,17.80
2022-09-27T14:19:04.077Z,18.70
2022-09-27T14:21:37.336Z,19.40
2022-09-27T14:24:27.087Z,19.70
2022-09-27T14:27:15.911Z,20.20
2022-09-27T14:29:50.112Z,19.70
2022-09-27T14:32:32.440Z,19.50
2022-09-27T14:35:31.946Z,19.30
2022-09-27T14:38:07.490Z,19.60
2022-09-27T14:40:54.755Z,19.80
2022-09-27T14:43:22.532Z,20.00
2022-09-27T14:45:52.931Z,20.30
2022-09-27T14:48:23.876Z,20.20
2022-09-27T14:51:24.641Z,20.30
2022-09-27T14:53:57.158Z,20.30
2022-09-27T14:56:30.497Z,19.70
2022-09-27T14:59:27.011Z,19.70
2022-09-27T15:01:54.895Z,19.50
2022-09-27T15:04:24.534Z,19.50
2022-09-27T15:06:51.915Z,19.70
2022-09-27T15:09:19.519Z,19.80
2022-09-27T15:11:53.119Z,20.10
2022-09-27T15:14:21.784Z,19.50
2022-09-27T15:16:55.729Z,19.20
2022-09-27T15:19:30.096Z,19.10
2022-09-27T15:22:17.137Z,18.80
2022-09-27T15:24:47.630Z,18.80
2022-09-27T15:27:17.382Z,18.60
2022-09-27T15:30:05.045Z,18.10
2022-09-27T15:32:32.058Z,18.10
2022-09-27T15:35:08.215Z,18.00
2022-09-27T15:37:38.007Z,18.30
2022-09-27T15:40:20.513Z,17.90
2022-09-27T15:43:04.074Z,17.70
2022-09-27T15:45:33.934Z,17.40
2022-09-27T15:48:15.006Z,17.60
2022-09-27T15:50:42.563Z,17.50
2022-09-27T15:53:13.020Z,17.50
2022-09-27T15:55:43.514Z,17.70
2022-09-27T15:58:19.253Z,17.70
2022-09-27T16:01:17.116Z,17.70
2022-09-27T16:03:45.045Z,17.40
2022-09-27T16:06:14.009Z,17.50
2022-09-27T16:08:41.215Z,17.50
2022-09-27T16:11:13.942Z,17.60
2022-09-27T16:13:41.269Z,17.60
2022-09-27T16:16:14.981Z,17.40
2022-09-27T16:18:42.306Z,17.40
2022-09-27T16:21:10.155Z,17.20
2022-09-27T16:23:37.231Z,16.70
2022-09-27T16:26:05.475Z,16.80
2022-09-27T16:28:37.174Z,16.70
2022-09-27T16:31:06.394Z,16.50
2022-09-27T16:33:34.590Z,16.40
2022-09-27T16:36:09.458Z,16.10
2022-09-27T16:38:36.684Z,16.10
2022-09-27T16:41:04.238Z,16.10
2022-09-27T16:43:34.014Z,16.00
2022-09-27T16:46:11.920Z,15.90
2022-09-27T16:48:39.281Z,15.90
2022-09-27T16:51:30.490Z,15.80
2022-09-27T16:53:57.725Z,15.60
2022-09-27T16:56:24.930Z,15.50
2022-09-27T16:58:52.762Z,15.40
2022-09-27T17:01:20.172Z,15.40
2022-09-27T17:03:55.554Z,15.40
2022-09-27T17:06:25.079Z,15.40
2022-09-27T17:08:52.096Z,15.40
2022-09-27T17:11:20.402Z,15.30
2022-09-27T17:13:49.346Z,15.40
2022-09-27T17:16:16.892Z,15.40
2022-09-27T17:18:43.988Z,15.30
2022-09-27T17:21:12.976Z,15.10
2022-09-27T17:23:40.155Z,15.20
2022-09-27T17:26:20.658Z,14.90
2022-09-27T17:28:49.829Z,14.80
2022-09-27T17:31:18.944Z,14.70
2022-09-27T17:33:47.977Z,14.80
2022-09-27T17:36:18.131Z,14.70
2022-09-27T17:38:46.400Z,14.70
2022-09-27T17:41:15.371Z,14.60
2022-09-27T17:43:50.396Z,14.50
2022-09-27T17:46:22.855Z,14.70
2022-09-27T17:49:09.031Z,14.60
2022-09-27T17:51:39.586Z,14.60
2022-09-27T17:54:08.501Z,14.50
2022-09-27T17:56:40.784Z,14.50
2022-09-27T17:59:09.672Z,14.70
2022-09-27T18:01:41.154Z,14.60
2022-09-27T18:04:10.919Z,14.50
2022-09-27T18:06:40.577Z,14.60
2022-09-27T18:09:09.428Z,14.80
2022-09-27T18:11:40.466Z,14.80
2022-09-27T18:14:07.775Z,14.80
2022-09-27T18:16:39.828Z,14.70
2022-09-27T18:19:08.511Z,14.50
2022-09-27T18:21:35.936Z,14.30
2022-09-27T18:24:06.493Z,14.10
2022-09-27T18:26:36.717Z,14.00
2022-09-27T18:29:10.881Z,14.10
2022-09-27T18:31:39.978Z,14.00
2022-09-27T18:34:10.768Z,14.00
2022-09-27T18:36:40.738Z,14.10
2022-09-27T18:39:12.047Z,14.00
2022-09-27T18:41:39.113Z,14.00
2022-09-27T18:44:06.801Z,14.00
2022-09-27T18:46:36.945Z,13.90
2022-09-27T18:49:07.109Z,13.90
2022-09-27T18:51:37.458Z,14.00
2022-09-27T18:54:09.651Z,13.90
2022-09-27T18:56:39.527Z,13.90
2022-09-27T18:59:09.036Z,14.10
2022-09-27T19:01:43.319Z,14.00
2022-09-27T19:04:12.014Z,14.20
2022-09-27T19:06:39.884Z,14.20
2022-09-27T19:09:08.021Z,14.00
2022-09-27T19:11:35.494Z,14.10
2022-09-27T19:14:02.543Z,14.20
2022-09-27T19:16:30.584Z,14.30
2022-09-27T19:18:57.871Z,14.40
2022-09-27T19:21:28.262Z,14.40
2022-09-27T19:23:55.689Z,14.30
2022-09-27T19:26:26.105Z,14.40
2022-09-27T19:28:54.395Z,14.20
2022-09-27T19:31:24.679Z,14.40
2022-09-27T19:33:57.451Z,14.30
2022-09-27T19:36:26.947Z,14.20
2022-09-27T19:38:53.743Z,14.20
2022-09-27T19:41:20.629Z,14.00
2022-09-27T19:43:52.428Z,14.20
2022-09-27T19:46:20.531Z,14.30
2022-09-27T19:48:49.644Z,14.30
2022-09-27T19:51:19.199Z,14.20
2022-09-27T19:53:46.889Z,14.20
2022-09-27T19:56:14.652Z,14.40
2022-09-27T19:58:42.672Z,14.40
2022-09-27T20:01:16.155Z,14.30
2022-09-27T20:03:44.606Z,14.30
2022-09-27T20:06:14.232Z,14.20
2022-09-27T20:08:42.374Z,14.10
2022-09-27T20:11:12.622Z,14.00
2022-09-27T20:13:40.071Z,14.00
2022-09-27T20:16:08.924Z,13.80
2022-09-27T20:18:41.789Z,13.90
2022-09-27T20:21:09.090Z,13.90
2022-09-27T20:23:36.948Z,14.00
2022-09-27T20:26:08.132Z,14.10
2022-09-27T20:28:36.012Z,14.10
2022-09-27T20:31:05.337Z,14.00
2022-09-27T20:33:41.889Z,13.90
2022-09-27T20:36:12.670Z,13.80
2022-09-27T20:38:47.404Z,13.80
2022-09-27T20:41:19.681Z,13.80
2022-09-27T20:43:47.286Z,13.70
2022-09-27T20:46:17.172Z,13.60
2022-09-27T20:48:45.153Z,13.70
2022-09-27T20:51:16.833Z,13.70
2022-09-27T20:53:49.135Z,13.50
2022-09-27T20:56:20.158Z,13.10
2022-09-27T20:58:49.223Z,13.40
2022-09-27T21:01:18.189Z,13.50
2022-09-27T21:03:45.828Z,13.70
2022-09-27T21:06:13.946Z,13.60
2022-09-27T21:08:41.221Z,13.60
2022-09-27T21:11:11.083Z,13.60
2022-09-27T21:13:41.415Z,13.70
2022-09-27T21:16:10.858Z,13.50
2022-09-27T21:18:38.388Z,13.50
2022-09-27T21:21:15.066Z,13.50
2022-09-27T21:23:44.727Z,13.40
2022-09-27T21:26:13.158Z,13.50
2022-09-27T21:28:51.911Z,13.50
2022-09-27T21:31:31.945Z,13.60
2022-09-27T21:34:04.026Z,13.70
2022-09-27T21:36:33.959Z,13.70
2022-09-27T21:39:01.345Z,13.60
2022-09-27T21:41:28.413Z,13.60
2022-09-27T21:43:55.765Z,13.50
2022-09-27T21:46:24.998Z,13.50
2022-09-27T21:48:59.936Z,13.50
2022-09-27T21:51:29.668Z,13.60
2022-09-27T21:53:59.019Z,13.70
2022-09-27T21:56:31.248Z,13.70
2022-09-27T21:58:58.614Z,13.50
2022-09-27T22:01:29.268Z,13.40
2022-09-27T22:03:57.668Z,13.50
2022-09-27T22:06:33.621Z,13.40
2022-09-27T22:09:01.345Z,13.40
2022-09-27T22:11:33.910Z,13.50
2022-09-27T22:14:01.494Z,13.50
2022-09-27T22:16:32.090Z,13.40
2022-09-27T22:18:59.799Z,13.20
2022-09-27T22:21:29.595Z,13.30
2022-09-27T22:23:58.499Z,13.30
2022-09-27T22:26:27.967Z,13.20
2022-09-27T22:28:55.426Z,13.20
2022-09-27T22:31:23.384Z,13.00
2022-09-27T22:33:50.766Z,12.70
2022-09-27T22:36:18.023Z,12.60
2022-09-27T22:38:45.110Z,12.60
2022-09-27T22:41:14.678Z,12.50
2022-09-27T22:43:42.059Z,12.70
2022-09-27T22:46:09.444Z,12.60
2022-09-27T22:48:36.787Z,12.40
2022-09-27T22:51:04.720Z,12.50
2022-09-27T22:53:32.983Z,12.60
2022-09-27T22:56:04.032Z,12.70
2022-09-27T22:58:32.227Z,12.80
2022-09-27T23:00:59.984Z,12.70
2022-09-27T23:03:26.950Z,12.50
2022-09-27T23:05:53.966Z,12.60
2022-09-27T23:08:21.695Z,12.50
2022-09-27T23:10:48.521Z,12.70
2022-09-27T23:13:15.478Z,12.70
2022-09-27T23:15:42.688Z,12.60
2022-09-27T23:18:10.221Z,12.60
2022-09-27T23:20:37.235Z,12.50
2022-09-27T23:23:04.216Z,12.60
2022-09-27T23:25:30.977Z,12.60
2022-09-27T23:27:58.281Z,12.30
2022-09-27T23:30:29.261Z,12.20
2022-09-27T23:32:56.420Z,12.30
2022-09-27T23:35:23.625Z,12.20
2022-09-27T23:37:54.406Z,12.30
2022-09-27T23:40:21.427Z,12.40
2022-09-27T23:42:48.463Z,12.50
2022-09-27T23:45:16.454Z,12.50
2022-09-27T23:47:43.207Z,12.60
2022-09-27T23:50:10.337Z,12.40
2022-09-27T23:52:37.162Z,12.50
2022-09-27T23:55:04.334Z,12.50
2022-09-27T23:57:31.581Z,12.60
2022-09-27T23:59:58.413Z,12.70
